createdAt,value
2019-04-07T00:00:04.961Z,1003.71
2019-04-07T00:10:03.701Z,1003.69
2019-04-07T00:20:04.143Z,1003.64
2019-04-07T00:30:04.985Z,1003.64
2019-04-07T00:40:04.557Z,1003.67
2019-04-07T00:50:04.373Z,1003.69
2019-04-07T01:00:04.816Z,1003.64
2019-04-07T01:10:04.961Z,1003.62
2019-04-07T01:20:03.074Z,1003.68
2019-04-07T01:30:04.757Z,1003.74
2019-04-07T01:40:04.331Z,1003.79
2019-04-07T01:50:03.769Z,1003.75
2019-04-07T02:00:04.533Z,1003.71
2019-04-07T02:10:03.361Z,1003.70
2019-04-07T02:20:05.590Z,1003.74
2019-04-07T02:30:05.799Z,1003.86
2019-04-07T02:40:06.609Z,1003.79
2019-04-07T02:50:04.378Z,1003.77
2019-04-07T03:00:06.279Z,1003.89
2019-04-07T03:10:04.800Z,1003.98
2019-04-07T03:20:04.959Z,1004.04
2019-04-07T03:30:06.688Z,1004.05
2019-04-07T03:40:05.068Z,1004.04
2019-04-07T03:50:04.397Z,1004.04
2019-04-07T04:00:05.871Z,1004.16
2019-04-07T04:10:04.245Z,1004.21
2019-04-07T04:20:04.163Z,1004.31
2019-04-07T04:30:05.024Z,1004.36
2019-04-07T04:40:03.978Z,1004.35
2019-04-07T04:50:05.962Z,1004.54
2019-04-07T05:00:05.771Z,1004.59
2019-04-07T05:10:04.572Z,1004.70
2019-04-07T05:20:03.397Z,1004.70
2019-04-07T05:30:05.078Z,1004.84
2019-04-07T05:40:05.828Z,1004.72
2019-04-07T05:50:06.456Z,1004.71
2019-04-07T06:00:06.682Z,1004.64
2019-04-07T06:10:05.360Z,1004.75
2019-04-07T06:20:04.402Z,1004.80
2019-04-07T06:30:05.186Z,1004.75
2019-04-07T06:40:04.657Z,1004.85
2019-04-07T06:50:06.310Z,1004.96
2019-04-07T07:00:04.536Z,1005.07
2019-04-07T07:10:06.209Z,1005.09
2019-04-07T07:20:06.963Z,1005.16
2019-04-07T07:30:04.685Z,1005.23
2019-04-07T07:40:12.319Z,1005.18
2019-04-07T07:50:08.890Z,1005.23
2019-04-07T08:00:08.749Z,1005.25
2019-04-07T08:10:03.966Z,1005.39
2019-04-07T08:20:03.826Z,1005.48
2019-04-07T08:30:11.714Z,1005.65
2019-04-07T08:40:09.006Z,1005.69
2019-04-07T08:50:04.309Z,1005.67
2019-04-07T09:00:06.238Z,1005.61
2019-04-07T09:10:04.373Z,1005.72
2019-04-07T09:20:10.939Z,1005.64
2019-04-07T09:30:11.215Z,1005.71
2019-04-07T09:40:06.736Z,1005.64
2019-04-07T09:50:05.138Z,1005.66
2019-04-07T10:00:03.618Z,1005.69
2019-04-07T10:10:14.994Z,1005.74
2019-04-07T10:20:03.112Z,1005.75
2019-04-07T10:30:05.720Z,1005.76
2019-04-07T10:40:17.390Z,1005.70
2019-04-07T10:50:09.887Z,1005.66
2019-04-07T11:00:05.797Z,1005.69
2019-04-07T11:10:05.188Z,1005.66
2019-04-07T11:20:03.728Z,1005.61
2019-04-07T11:30:05.707Z,1005.50
2019-04-07T11:40:05.084Z,1005.53
2019-04-07T11:50:06.032Z,1005.64
2019-04-07T12:00:04.607Z,1005.56
2019-04-07T12:10:05.460Z,1005.53
2019-04-07T12:20:05.318Z,1005.47
2019-04-07T12:30:04.338Z,1005.41
2019-04-07T12:40:03.305Z,1005.35
2019-04-07T12:50:05.151Z,1005.34
2019-04-07T13:00:05.996Z,1005.30
2019-04-07T13:10:06.614Z,1005.34
2019-04-07T13:20:03.982Z,1005.20
2019-04-07T13:30:07.136Z,1005.12
2019-04-07T13:40:05.071Z,1005.13
2019-04-07T13:50:05.237Z,1005.17
2019-04-07T14:00:06.386Z,1005.28
2019-04-07T14:10:06.181Z,1005.36
2019-04-07T14:20:05.994Z,1005.39
2019-04-07T14:30:06.207Z,1005.41
2019-04-07T14:40:05.143Z,1005.50
2019-04-07T14:50:05.274Z,1005.46
2019-04-07T15:00:05.863Z,1005.42
2019-04-07T15:10:03.964Z,1005.42
2019-04-07T15:20:04.673Z,1005.50
2019-04-07T15:30:04.840Z,1005.52
2019-04-07T15:40:08.305Z,1005.50
2019-04-07T15:50:03.749Z,1005.56
2019-04-07T16:00:06.469Z,1005.53
2019-04-07T16:10:04.243Z,1005.58
2019-04-07T16:20:03.547Z,1005.71
2019-04-07T16:30:05.007Z,1005.77
2019-04-07T16:40:11.751Z,1005.86
2019-04-07T16:50:03.889Z,1005.97
2019-04-07T17:00:05.028Z,1006.03
2019-04-07T17:10:05.425Z,1006.02
2019-04-07T17:20:05.755Z,1006.13
2019-04-07T17:30:04.822Z,1006.16
2019-04-07T17:40:05.573Z,1006.32
2019-04-07T17:50:04.570Z,1006.42
2019-04-07T18:00:06.461Z,1006.51
2019-04-07T18:10:04.754Z,1006.61
2019-04-07T18:20:09.504Z,1006.76
2019-04-07T18:30:05.280Z,1006.81
2019-04-07T18:40:04.574Z,1007.00
2019-04-07T18:50:10.221Z,1007.07
2019-04-07T19:00:06.571Z,1007.24
2019-04-07T19:10:20.979Z,1007.28
2019-04-07T19:20:07.646Z,1007.50
2019-04-07T19:30:05.655Z,1007.48
2019-04-07T19:40:04.705Z,1007.65
2019-04-07T19:50:03.527Z,1007.63
2019-04-07T20:00:04.664Z,1007.62
2019-04-07T20:10:03.940Z,1007.81
2019-04-07T20:20:08.749Z,1007.89
2019-04-07T20:30:04.590Z,1007.86
2019-04-07T20:40:06.891Z,1007.87
2019-04-07T20:50:04.244Z,1008.22
2019-04-07T21:00:08.219Z,1008.31
2019-04-07T21:10:11.141Z,1008.37
2019-04-07T21:20:08.639Z,1008.37
2019-04-07T21:30:06.306Z,1008.29
2019-04-07T21:40:08.985Z,1008.34
2019-04-07T21:50:10.390Z,1008.34
2019-04-07T22:00:05.545Z,1008.46
2019-04-07T22:10:03.927Z,1008.52
2019-04-07T22:20:04.806Z,1008.72
2019-04-07T22:30:09.103Z,1008.70
2019-04-07T22:40:04.890Z,1008.71
2019-04-07T22:50:07.986Z,1008.73
2019-04-07T23:00:06.366Z,1008.84
2019-04-07T23:10:03.511Z,1008.77
2019-04-07T23:20:03.243Z,1008.82
2019-04-07T23:30:04.240Z,1008.83
2019-04-07T23:40:04.722Z,1008.86
2019-04-07T23:50:03.642Z,1008.96
